• Join FlightAware (Why Join?)
  • Login
  • US Flag 
06:21PM EDT


 

Airport Tracker/Info


-or-


 

Live Flight TrackerFlight Track Log ✈ N983CA ✈ 19-Apr-2013 ✈ KGEG - KSFO

Flight Track Log - Related Links

Times and Time Zones

All times are in EDT time to prevent confusion due to time zone crossing. See the N983CA flight status page for this flight to view local times or setup timezone preferences in your user account.

Time Position Orientation Groundspeed Altitude Reporting Facility
EDT Latitude Longitude Course Direction KTS MPH feet Rate Location/Type
08:41AM 47.5878 -117.5819 211° Southwest 151 174 5,100  Level Seattle Center
08:42AM 47.5350 -117.6203 206° Southwest 213 245 7,400 2,160 Climbing Seattle Center
08:43AM 47.4683 -117.6686 206° Southwest 272 313 9,500 2,100 Climbing Seattle Center
08:44AM 47.1931 -117.8475 202° Southwest  Level FlightAware Approximate
08:44AM 47.3961 -117.7211 206° Southwest 290 334 11,700  Level Seattle Center
08:45AM 47.0841 -117.9162 204° Southwest  Level FlightAware Approximate
08:45AM 47.3164 -117.7769 205° Southwest 311 358 13,600  Level Seattle Center
08:46AM 46.9950 -118.0044 211° Southwest  Level FlightAware Approximate
08:46AM 47.2364 -117.8350 206° Southwest 331 381 15,600  Level Seattle Center
08:47AM 47.1525 -117.8958 206° Southwest 337 388 17,500 1,620 Climbing Seattle Center
08:48AM 47.0661 -117.9553 205° Southwest 344 396 18,900 1,500 Climbing Seattle Center
08:49AM 46.9797 -118.0203 207° Southwest 350 403 20,500 1,500 Climbing Seattle Center
08:50AM 46.8992 -118.1036 215° Southwest 353 406 21,900 1,320 Climbing Seattle Center
08:51AM 46.8167 -118.1869 215° Southwest 360 414 23,200 1,200 Climbing Seattle Center
08:52AM 46.7336 -118.2700 214° Southwest 362 417 24,400 1,080 Climbing Seattle Center
08:53AM 46.6483 -118.3542 214° Southwest 368 423 25,400 900 Climbing Seattle Center
08:54AM 46.5619 -118.4406 215° Southwest 376 433 26,300 900 Climbing Seattle Center
08:55AM 46.4744 -118.5261 214° Southwest 380 437 27,300 720 Climbing Seattle Center
08:56AM 46.3850 -118.6144 214° Southwest 387 445 27,800 540 Climbing Seattle Center
08:57AM 46.2831 -118.6814 204° Southwest 405 466 28,400 660 Climbing Seattle Center
08:58AM 46.1708 -118.7517 203° Southwest 407 468 29,200 720 Climbing Seattle Center
08:59AM 46.0681 -118.8175 204° Southwest 406 467 29,900 660 Climbing Seattle Center
09:00AM 45.9642 -118.8831 204° Southwest 409 471 30,600 780 Climbing Seattle Center
09:01AM 45.8625 -118.9492 204° Southwest 402 463 31,500 840 Climbing Seattle Center
09:02AM 45.7617 -119.0125 204° Southwest 397 457 32,400 720 Climbing Seattle Center
09:03AM 45.6622 -119.0750 204° Southwest 391 450 33,000 300 Climbing Seattle Center
09:04AM 45.5608 -119.1386 204° Southwest 398 458 33,000  Level Seattle Center
09:05AM 45.4583 -119.2025 204° Southwest 401 461 33,000  Level Seattle Center
09:06AM 45.3567 -119.2661 204° Southwest 399 459 33,000  Level Seattle Center
09:07AM 45.2550 -119.3283 203° Southwest 399 459 33,000  Level Seattle Center
09:08AM 45.1531 -119.3925 204° Southwest 399 459 33,000  Level Seattle Center
09:09AM 45.0519 -119.4536 203° Southwest 395 455 33,000  Level Seattle Center
09:10AM 44.9486 -119.5169 203° Southwest 400 460 33,000  Level Seattle Center
09:11AM 44.8453 -119.5808 204° Southwest 401 461 33,000  Level Seattle Center
09:12AM 44.7397 -119.6439 203° Southwest 407 468 33,000  Level Seattle Center
09:13AM 44.6328 -119.7086 203° Southwest 413 475 33,000  Level Seattle Center
09:14AM 44.5269 -119.7725 203° Southwest 414 476 33,000  Level Seattle Center
09:15AM 44.4197 -119.8367 203° Southwest 418 481 33,000  Level Seattle Center
09:16AM 44.3122 -119.9006 203° Southwest 418 481 33,000  Level Seattle Center
09:17AM 44.2061 -119.9636 203° Southwest 416 479 33,000 180 Level Seattle Center
09:18AM 44.0989 -120.0267 203° Southwest 417 480 33,400 420 Climbing Seattle Center
09:19AM 43.9936 -120.0886 203° Southwest 413 475 33,900 540 Climbing Seattle Center
09:20AM 43.8903 -120.1494 203° Southwest 405 466 34,500 540 Climbing Seattle Center
09:21AM 43.7872 -120.2100 203° Southwest 403 464 35,000 240 Climbing Seattle Center
09:22AM 43.6844 -120.2689 203° Southwest 401 461 35,000  Level Seattle Center
09:23AM 43.5719 -120.3339 203° Southwest 406 467 35,000  Level Seattle Center
09:24AM 43.4667 -120.4083 207° Southwest 417 480 35,000  Level Seattle Center
09:26AM 43.2706 -120.5142 201° Southwest 419 482 35,000  Level Oakland Center
09:27AM 43.1614 -120.5772 203° Southwest 422 486 35,000  Level Oakland Center
09:28AM 43.0525 -120.6394 203° Southwest 423 487 35,000  Level Oakland Center
09:29AM 42.9439 -120.7025 203° Southwest 424 488 35,000  Level Oakland Center
09:30AM 42.8336 -120.7611 201° Southwest 426 490 35,000  Level Oakland Center
09:31AM 42.7244 -120.8228 203° Southwest 425 489 35,000  Level Oakland Center
09:32AM 42.6133 -120.8853 202° Southwest 427 491 35,000  Level Oakland Center
09:33AM 42.5022 -120.9472 202° Southwest 429 494 35,000  Level Oakland Center
09:34AM 42.3908 -121.0094 202° Southwest 430 495 35,000  Level Oakland Center
09:35AM 42.2794 -121.0719 203° Southwest 431 496 35,000  Level Oakland Center
09:36AM 42.1683 -121.1319 202° Southwest 430 495 35,000  Level Oakland Center
09:37AM 42.0578 -121.1931 202° Southwest 427 491 35,000  Level Oakland Center
09:38AM 41.9233 -121.2675 202° Southwest 431 496 35,000  Level Oakland Center
09:39AM 41.8108 -121.3292 202° Southwest 432 497 35,000  Level Oakland Center
09:40AM 41.6972 -121.3894 202° Southwest 435 501 35,000  Level Oakland Center
09:41AM 41.5825 -121.4492 201° Southwest 437 503 35,000  Level Oakland Center
09:42AM 41.4647 -121.5000 198° South 442 509 35,000  Level Oakland Center
09:43AM 41.3472 -121.5519 198° South 442 509 35,000  Level Seattle Center
09:44AM 41.2283 -121.6017 197° South 445 512 35,000  Level Seattle Center
09:45AM 41.1081 -121.6506 197° South 449 517 35,000  Level Oakland Center
09:46AM 40.9981 -121.6958 197° South 447 514 35,000  Level Oakland Center
09:47AM 40.8792 -121.7467 198° South 449 517 35,000  Level Oakland Center
09:48AM 40.7597 -121.7961 197° South 450 518 35,000  Level Oakland Center
09:49AM 40.6153 -121.8564 198° South 454 522 35,000  Level Oakland Center
09:50AM 40.4958 -121.9072 198° South 449 517 35,000  Level Oakland Center
09:51AM 40.3733 -121.9572 197° South 459 528 35,000  Level Oakland Center
09:52AM 40.2511 -122.0061 197° South 457 526 35,000  Level Oakland Center
09:53AM 40.1256 -122.0583 198° South 463 533 35,000  Level Oakland Center
09:54AM 40.0000 -122.1094 197° South 464 534 35,000  Level Oakland Center
09:55AM 39.8753 -122.1606 197° South 464 534 35,000  Level Oakland Center
09:56AM 39.7519 -122.2117 198° South 464 534 35,000  Level Oakland Center
09:57AM 39.6283 -122.2622 197° South 465 535 35,000  Level Oakland Center
09:58AM 39.5047 -122.3117 197° South 465 535 35,000  Level Oakland Center
09:59AM 39.3742 -122.3633 197° South 466 536 35,000  Level Oakland Center
10:00AM 39.2503 -122.4133 197° South 467 537 35,000  Level Oakland Center
10:01AM 39.1256 -122.4619 197° South 469 540 35,000  Level Oakland Center
10:02AM 39.0022 -122.5108 197° South 469 540 35,000 -60 Level Oakland Center
10:03AM 38.8781 -122.5589 197° South 469 540 34,900 -1,140 Descending Oakland Center
10:04AM 38.7517 -122.6058 196° South 472 543 32,800 -2,820 Descending Oakland Center
10:05AM 38.6183 -122.6144 183° South 481 554 29,200 -3,480 Descending Oakland Center
10:07AM 38.4878 -122.6253 184° South 469 540 25,800 -3,360 Descending Oakland Center
10:08AM 38.3644 -122.6358 184° South 450 518 22,400 -3,360 Descending Oakland Center
10:09AM 38.2458 -122.6458 184° South 433 498 19,000 -3,240 Descending Oakland Center
10:10AM 38.1319 -122.6550 184° South 418 481 15,900 -3,240 Descending Oakland Center
10:11AM 38.0239 -122.6650 184° South 401 461 12,500 -2,460 Descending Oakland Center
10:12AM 37.8997 -122.6656 180° South 394 453 11,000 -780 Descending Oakland Center
10:13AM 37.8172 -122.5861 143° Southeast 389 448 11,000  Level Oakland Center
10:14AM 37.7333 -122.4833 136° Southeast 383 441 11,000  Level Northern Cal TRACON
10:15AM 37.6500 -122.4000 142° Southeast 309 356 11,000 -60 Level Northern Cal TRACON
10:16AM 37.5994 -122.3572 146° Southeast 291 335 10,900 -780 Descending Oakland Center
10:17AM 37.5325 -122.3122 152° Southeast 276 318 9,600 -1,620 Descending Oakland Center
10:18AM 37.4883 -122.2481 131° Southeast 253 291 7,700 -2,040 Descending Oakland Center
10:19AM 37.4581 -122.1544 112° Southeast 244 281 5,500 -1,980 Descending Oakland Center
10:20AM 37.4667 -122.1000 79° East 235 270 4,100 -1,080 Descending Northern Cal TRACON
10:20AM 37.5000 -122.1333 322° Northwest 205 236 3,700 -480 Descending Northern Cal TRACON
10:21AM 37.5119 -122.1386 341° North 216 249 3,600 -660 Descending Oakland Center
10:22AM 37.5414 -122.1975 302° West 206 237 2,900 -720 Descending Oakland Center